This is the latest recevied weather packets stored in our database for station/object K6MBY. If no packets are shown the sender has not sent any weather packets the latest 10 day(s).
| Time | Temp. | Humidity | Pressure | Rain* | Wind** | Luminosity | Snow |
|---|---|---|---|---|---|---|---|
| 1777843718 | 21.11° C | 51% | 1016.5 hPa | 0 mm | - | 774 W/m² | - |
| 1777843416 | 21.11° C | 50% | 1016.5 hPa | 0 mm | - | 783 W/m² | - |
| 1777843113 | 20.56° C | 52% | 1016.5 hPa | 0 mm | - | 777 W/m² | - |
| 1777842810 | 20.56° C | 50% | 1016.6 hPa | 0 mm | - | 794 W/m² | - |
| 1777842505 | 20.56° C | 55% | 1016.6 hPa | 0 mm | - | 785 W/m² | - |
| 1777842203 | 20.56° C | 55% | 1016.6 hPa | 0 mm | - | 787 W/m² | - |
| 1777841897 | 20.56° C | 54% | 1016.8 hPa | 0 mm | - | 815 W/m² | - |
| 1777841594 | 20.56° C | 50% | 1016.6 hPa | 0 mm | - | 821 W/m² | - |
| 1777841291 | 20.56° C | 52% | 1016.9 hPa | 0 mm | - | 830 W/m² | - |
| 1777840989 | 21.11° C | 49% | 1016.8 hPa | 0 mm | - | 836 W/m² | - |
| 1777840686 | 21.11° C | 52% | 1016.8 hPa | 0 mm | - | 840 W/m² | - |
| 1777840383 | 20.56° C | 50% | 1016.8 hPa | 0 mm | - | 843 W/m² | - |
| 1777840080 | 20.56° C | 55% | 1016.7 hPa | 0 mm | - | 843 W/m² | - |
| 1777839778 | 20.56° C | 53% | 1016.8 hPa | 0 mm | - | 848 W/m² | - |
| 1777839475 | 20.56° C | 53% | 1016.7 hPa | 0 mm | - | 849 W/m² | - |
| 1777839173 | 21.67° C | 49% | 1016.8 hPa | 0 mm | - | 850 W/m² | - |
| 1777838869 | 21.11° C | 52% | 1016.8 hPa | 0 mm | - | 851 W/m² | - |
| 1777838565 | 21.67° C | 47% | 1016.8 hPa | 0 mm | - | 851 W/m² | - |
| 1777838263 | 21.11° C | 52% | 1016.8 hPa | 0 mm | - | 852 W/m² | - |
| 1777837959 | 21.11° C | 51% | 1017.2 hPa | 0 mm | - | 851 W/m² | - |
| 1777837657 | 21.11° C | 52% | 1017.1 hPa | 0 mm | - | 851 W/m² | - |
| 1777837347 | 21.11° C | 50% | 1017.2 hPa | 0 mm | - | 849 W/m² | - |
| 1777837044 | 21.11° C | 48% | 1017.3 hPa | 0 mm | - | 848 W/m² | - |
| 1777836740 | 20.56° C | 48% | 1017.4 hPa | 0 mm | - | 846 W/m² | - |
| 1777836436 | 21.11° C | 48% | 1017.5 hPa | 0 mm | - | 844 W/m² | - |
* Rain latest hour (hover to see other rain measurements)
** Current wind speed in m/s (hover to see current wind gust speed)